Time;durP1;ratioP1;P1;durP2;ratioP2;P2;SDS_P1;SDS_P2;PMS_P1;PMS_P2;Temp;Humidity;BMP_temperature;BMP_pressure;BME280_temperature;BME280_humidity;BME280_pressure;Samples;Min_cycle;Max_cycle;Signal;HPM_P1;HPM_P2
2024/03/19 00:01:25;;;;;;;31.60;23.25;;;13.60;96.70;;;;;;4917805;29;20055;-77
2024/03/19 00:03:52;;;;;;;31.77;22.00;;;13.60;96.70;;;;;;4932807;29;20607;-77
2024/03/19 00:06:23;;;;;;;33.88;22.98;;;13.60;96.70;;;;;;4918673;29;20471;-77
2024/03/19 00:08:51;;;;;;;32.35;21.58;;;13.60;96.70;;;;;;4902383;29;20083;-77
2024/03/19 00:11:19;;;;;;;26.75;20.70;;;13.60;96.70;;;;;;4932746;29;20046;-77
2024/03/19 00:13:47;;;;;;;31.27;21.60;;;13.60;96.70;;;;;;4932869;29;20047;-77
2024/03/19 00:16:14;;;;;;;30.45;21.65;;;13.60;96.70;;;;;;4933602;29;20583;-77
2024/03/19 00:18:42;;;;;;;31.48;22.92;;;13.60;96.70;;;;;;4933371;29;20063;-77
2024/03/19 00:21:12;;;;;;;31.85;23.58;;;13.60;96.70;;;;;;4928690;29;20051;-77
2024/03/19 00:23:41;;;;;;;29.08;21.85;;;13.60;96.70;;;;;;4933125;29;20508;-77
2024/03/19 00:26:09;;;;;;;31.00;23.45;;;13.60;96.70;;;;;;4945271;29;20706;-77
2024/03/19 00:28:38;;;;;;;33.65;23.85;;;13.60;96.70;;;;;;4933212;29;20816;-77
2024/03/19 00:31:10;;;;;;;31.83;22.75;;;13.60;96.70;;;;;;4932501;29;20078;-78
2024/03/19 00:33:37;;;;;;;32.97;23.27;;;13.60;96.70;;;;;;4923336;29;20051;-76
2024/03/19 00:36:09;;;;;;;31.17;23.27;;;13.60;96.70;;;;;;4915107;29;20043;-76
2024/03/19 00:38:36;;;;;;;34.13;23.83;;;13.60;96.70;;;;;;4915341;29;20050;-77
2024/03/19 00:41:07;;;;;;;35.55;23.95;;;13.50;96.70;;;;;;4931656;29;20047;-77
2024/03/19 00:43:34;;;;;;;31.80;23.33;;;13.50;96.70;;;;;;4930063;29;20497;-78
2024/03/19 00:46:02;;;;;;;33.53;24.30;;;13.50;96.70;;;;;;4932796;29;20129;-78
2024/03/19 00:48:31;;;;;;;38.22;24.45;;;13.50;96.70;;;;;;4901243;29;20396;-78
2024/03/19 00:51:00;;;;;;;37.45;24.50;;;13.60;96.70;;;;;;4934264;29;20062;-78
2024/03/19 00:53:31;;;;;;;30.23;22.75;;;13.50;96.70;;;;;;4933445;29;20718;-78
2024/03/19 00:55:59;;;;;;;29.95;22.20;;;13.60;96.70;;;;;;4917831;29;20054;-78
2024/03/19 00:58:29;;;;;;;29.70;22.25;;;13.50;96.70;;;;;;4944780;29;20052;-78
2024/03/19 01:00:57;;;;;;;31.80;23.25;;;13.50;96.70;;;;;;4944562;29;20051;-78
2024/03/19 01:03:25;;;;;;;33.17;23.20;;;13.50;96.70;;;;;;4916973;29;20047;-78
2024/03/19 01:05:52;;;;;;;32.50;22.50;;;13.50;96.70;;;;;;4917221;29;20051;-78
2024/03/19 01:08:21;;;;;;;30.63;22.75;;;13.50;96.70;;;;;;4900401;29;20083;-79
2024/03/19 01:10:49;;;;;;;30.63;22.00;;;13.50;96.70;;;;;;4952317;28;20517;-78
2024/03/19 01:13:18;;;;;;;30.30;21.52;;;13.60;96.70;;;;;;4913265;29;20549;-78
2024/03/19 01:15:49;;;;;;;30.08;22.52;;;13.60;96.70;;;;;;4916826;29;20051;-79
2024/03/19 01:18:19;;;;;;;28.35;21.05;;;13.60;96.70;;;;;;4901923;29;20055;-79
2024/03/19 01:20:47;;;;;;;28.05;22.45;;;13.60;96.70;;;;;;4942894;29;20071;-78
2024/03/19 01:23:18;;;;;;;28.23;20.92;;;13.60;96.70;;;;;;4931797;29;20057;-78
2024/03/19 01:25:45;;;;;;;28.58;21.33;;;13.60;96.70;;;;;;4932326;29;20081;-79
2024/03/19 01:28:13;;;;;;;26.88;20.98;;;13.60;96.70;;;;;;4916438;29;20074;-78
2024/03/19 01:30:40;;;;;;;29.25;21.77;;;13.60;96.70;;;;;;4931817;29;20051;-78
2024/03/19 01:33:09;;;;;;;27.17;21.35;;;13.60;96.70;;;;;;4916647;29;20035;-78
2024/03/19 01:35:36;;;;;;;25.83;20.50;;;13.60;96.70;;;;;;4931582;29;20485;-77
2024/03/19 01:38:04;;;;;;;27.75;19.55;;;13.50;96.70;;;;;;4927026;29;20055;-79
2024/03/19 01:40:33;;;;;;;27.75;20.58;;;13.50;96.70;;;;;;4924838;29;20508;-78
2024/03/19 01:43:00;;;;;;;24.60;19.48;;;13.50;96.70;;;;;;4926148;29;20618;-78
2024/03/19 01:45:27;;;;;;;25.52;20.42;;;13.60;96.70;;;;;;4929793;29;20047;-78
2024/03/19 01:47:56;;;;;;;25.70;19.58;;;13.50;96.70;;;;;;4924992;29;20054;-78
2024/03/19 01:50:26;;;;;;;27.33;19.45;;;13.50;96.70;;;;;;4929065;29;20426;-78
2024/03/19 01:52:56;;;;;;;25.95;19.45;;;13.50;96.70;;;;;;4899777;29;20532;-78
2024/03/19 01:55:24;;;;;;;23.83;18.73;;;13.50;96.70;;;;;;4930907;29;20094;-78
2024/03/19 01:57:55;;;;;;;25.88;19.60;;;13.50;96.70;;;;;;4909114;29;20047;-77
2024/03/19 02:00:22;;;;;;;24.48;18.70;;;13.50;96.70;;;;;;4944800;29;20052;-78
2024/03/19 02:02:52;;;;;;;26.23;20.42;;;13.50;96.70;;;;;;4946227;29;20043;-78
2024/03/19 02:05:20;;;;;;;27.08;20.20;;;13.50;96.70;;;;;;4944008;29;20048;-78
2024/03/19 02:07:49;;;;;;;28.02;19.63;;;13.50;96.70;;;;;;4910735;29;20079;-78
2024/03/19 02:10:20;;;;;;;29.60;20.70;;;13.50;96.70;;;;;;4947249;29;20047;-78
2024/03/19 02:12:49;;;;;;;24.42;18.38;;;13.50;96.70;;;;;;4932185;29;20141;-78
2024/03/19 02:15:17;;;;;;;27.20;18.55;;;13.50;96.70;;;;;;4930051;29;20043;-78
2024/03/19 02:17:47;;;;;;;27.27;19.17;;;13.50;96.70;;;;;;4914297;29;20051;-78
2024/03/19 02:20:18;;;;;;;30.58;18.08;;;13.50;96.70;;;;;;4915827;29;20069;-78
2024/03/19 02:22:49;;;;;;;27.48;18.25;;;13.50;96.70;;;;;;4917419;29;20062;-79
2024/03/19 02:25:18;;;;;;;28.98;18.58;;;13.50;96.70;;;;;;4915980;29;20047;-79
2024/03/19 02:27:46;;;;;;;26.13;18.17;;;13.50;96.70;;;;;;4900173;29;20063;-79
2024/03/19 02:30:14;;;;;;;24.35;17.65;;;13.50;96.70;;;;;;4915499;29;20051;-79
2024/03/19 02:32:42;;;;;;;26.02;18.10;;;13.50;96.70;;;;;;4945969;29;20055;-79
2024/03/19 02:35:10;;;;;;;28.45;18.73;;;13.50;96.70;;;;;;4899964;29;20505;-78
2024/03/19 02:37:39;;;;;;;25.42;17.70;;;13.50;96.70;;;;;;4932029;29;20094;-78
2024/03/19 02:40:11;;;;;;;26.85;18.17;;;13.50;96.70;;;;;;4929994;29;20043;-78
2024/03/19 02:42:39;;;;;;;24.92;17.80;;;13.50;96.70;;;;;;4911378;29;20142;-78
2024/03/19 02:45:07;;;;;;;25.23;17.55;;;13.50;96.70;;;;;;4931397;29;20039;-79
2024/03/19 02:47:35;;;;;;;21.67;15.55;;;13.50;96.70;;;;;;4915578;29;20050;-78
2024/03/19 02:50:05;;;;;;;21.13;15.13;;;13.50;96.70;;;;;;4944395;28;20397;-78
2024/03/19 02:52:32;;;;;;;20.63;15.25;;;13.40;96.70;;;;;;4899773;29;20058;-78
2024/03/19 02:55:00;;;;;;;20.08;14.02;;;13.40;96.70;;;;;;4930391;29;20051;-78
2024/03/19 02:57:30;;;;;;;18.38;13.60;;;13.40;96.70;;;;;;4946677;29;20058;-78
2024/03/19 02:59:58;;;;;;;18.05;13.57;;;13.40;96.70;;;;;;4947131;29;20085;-78
2024/03/19 03:02:31;;;;;;;18.40;13.70;;;13.40;96.70;;;;;;4930376;29;20620;-78
2024/03/19 03:05:00;;;;;;;15.75;13.30;;;13.40;96.70;;;;;;4930037;29;20488;-78
2024/03/19 03:07:28;;;;;;;17.33;12.20;;;13.40;96.70;;;;;;4946657;29;20054;-78
2024/03/19 03:09:56;;;;;;;15.85;13.13;;;13.40;96.70;;;;;;4929056;29;20058;-79
2024/03/19 03:12:27;;;;;;;16.60;12.52;;;13.40;96.70;;;;;;4930339;29;20060;-79
2024/03/19 03:14:58;;;;;;;16.25;12.50;;;13.40;96.70;;;;;;4931144;29;20464;-78
2024/03/19 03:17:26;;;;;;;16.77;12.73;;;13.40;96.70;;;;;;4931222;29;20555;-79
2024/03/19 03:19:55;;;;;;;16.70;13.40;;;13.40;96.70;;;;;;4929260;29;20047;-79
2024/03/19 03:22:23;;;;;;;18.83;12.88;;;13.40;96.70;;;;;;4930745;29;20051;-78
2024/03/19 03:24:52;;;;;;;17.02;13.23;;;13.40;96.70;;;;;;4929934;29;20076;-77
2024/03/19 03:27:20;;;;;;;16.70;13.70;;;13.40;96.70;;;;;;4916758;29;20424;-77
2024/03/19 03:29:48;;;;;;;18.83;13.93;;;13.40;96.70;;;;;;4914928;29;20055;-76
2024/03/19 03:32:17;;;;;;;16.23;13.23;;;13.40;96.70;;;;;;4929882;29;20130;-77
2024/03/19 03:34:45;;;;;;;20.25;13.95;;;13.30;96.70;;;;;;4929107;29;20098;-77
2024/03/19 03:37:13;;;;;;;19.17;13.70;;;13.30;96.70;;;;;;4919628;29;20047;-77
2024/03/19 03:39:41;;;;;;;20.33;14.48;;;13.30;96.70;;;;;;4927645;29;20649;-76
2024/03/19 03:42:09;;;;;;;21.23;14.52;;;13.20;96.70;;;;;;4915247;29;20121;-77
2024/03/19 03:44:39;;;;;;;22.23;14.80;;;13.20;96.70;;;;;;4930918;29;20050;-77
2024/03/19 03:47:06;;;;;;;23.13;15.73;;;13.20;96.70;;;;;;4910598;29;20078;-76
2024/03/19 03:49:35;;;;;;;19.50;13.80;;;13.10;96.70;;;;;;4928225;29;20070;-77
2024/03/19 03:52:03;;;;;;;22.02;15.00;;;13.10;96.70;;;;;;4897967;29;20051;-77
2024/03/19 03:54:32;;;;;;;18.60;13.45;;;13.10;96.70;;;;;;4923826;29;20093;-77
2024/03/19 03:57:02;;;;;;;22.10;14.15;;;13.10;96.70;;;;;;4946730;29;20219;-76
2024/03/19 03:59:29;;;;;;;21.42;14.68;;;13.10;96.70;;;;;;4914207;29;20086;-76
2024/03/19 04:01:58;;;;;;;21.90;14.98;;;13.10;96.70;;;;;;4914176;29;20656;-77
2024/03/19 04:04:26;;;;;;;21.70;13.85;;;13.10;96.70;;;;;;4915770;29;20070;-76
2024/03/19 04:06:56;;;;;;;21.90;15.65;;;13.10;96.70;;;;;;4928499;29;21065;-76
2024/03/19 04:09:25;;;;;;;20.30;14.32;;;13.00;96.70;;;;;;4930197;29;20055;-77
2024/03/19 04:11:52;;;;;;;22.92;15.00;;;13.00;96.70;;;;;;4914942;29;20070;-77
2024/03/19 04:14:20;;;;;;;24.10;15.38;;;13.00;96.70;;;;;;4912754;29;20098;-76
2024/03/19 04:16:47;;;;;;;23.33;14.88;;;13.00;96.70;;;;;;4930213;29;20066;-76
2024/03/19 04:19:14;;;;;;;22.73;14.05;;;13.00;96.70;;;;;;4933505;29;20047;-76
2024/03/19 04:21:40;;;;;;;22.90;14.80;;;13.00;96.70;;;;;;4940517;29;20102;-76
2024/03/19 04:24:12;;;;;;;23.77;15.20;;;13.00;96.70;;;;;;4927107;29;20043;-76
2024/03/19 04:26:39;;;;;;;24.33;14.98;;;13.00;96.70;;;;;;4932920;29;20054;-75
2024/03/19 04:29:12;;;;;;;23.58;14.52;;;12.90;96.70;;;;;;4903135;29;20047;-76
2024/03/19 04:31:41;;;;;;;21.17;14.00;;;12.80;96.70;;;;;;4922717;29;20076;-76
2024/03/19 04:34:09;;;;;;;22.70;14.55;;;12.80;96.70;;;;;;4949936;29;20051;-77
2024/03/19 04:36:36;;;;;;;21.33;14.10;;;12.80;96.70;;;;;;4929890;29;20062;-76
2024/03/19 04:39:03;;;;;;;24.88;14.43;;;12.80;96.70;;;;;;4916589;29;20063;-77
2024/03/19 04:41:33;;;;;;;22.55;14.30;;;12.80;96.70;;;;;;4918997;29;20050;-76
2024/03/19 04:44:01;;;;;;;24.48;15.27;;;12.80;96.70;;;;;;4918545;29;20125;-77
2024/03/19 04:46:30;;;;;;;25.88;14.90;;;12.80;96.70;;;;;;4933371;29;20642;-77
2024/03/19 04:48:59;;;;;;;22.50;14.60;;;12.80;96.70;;;;;;4947410;29;20138;-76
2024/03/19 04:51:27;;;;;;;25.92;15.32;;;12.80;96.70;;;;;;4946856;29;20723;-76
2024/03/19 04:53:54;;;;;;;25.33;14.35;;;12.80;96.70;;;;;;4932288;29;20408;-76
2024/03/19 04:56:21;;;;;;;22.25;14.02;;;12.80;96.70;;;;;;4931099;29;20047;-77
2024/03/19 04:58:51;;;;;;;22.52;14.35;;;12.90;96.70;;;;;;4933564;29;20051;-77
2024/03/19 05:01:18;;;;;;;22.67;15.30;;;12.90;96.70;;;;;;4932025;29;20094;-77
2024/03/19 05:03:46;;;;;;;25.85;15.45;;;12.90;96.70;;;;;;4923737;29;20048;-77
2024/03/19 05:06:15;;;;;;;24.77;16.05;;;12.80;96.70;;;;;;4917050;29;20126;-77
2024/03/19 05:08:43;;;;;;;24.17;14.85;;;12.80;96.70;;;;;;4931945;29;20209;-77
2024/03/19 05:11:11;;;;;;;23.08;15.13;;;12.80;96.70;;;;;;4914864;29;20063;-75
2024/03/19 05:13:39;;;;;;;22.60;15.20;;;12.80;96.70;;;;;;4947891;28;20054;-73
2024/03/19 05:16:10;;;;;;;22.33;15.27;;;12.80;96.70;;;;;;4916064;29;20057;-75
2024/03/19 05:18:42;;;;;;;23.50;15.32;;;12.80;96.70;;;;;;4900489;29;20142;-76
2024/03/19 05:21:10;;;;;;;24.00;14.90;;;12.80;96.70;;;;;;4930928;29;20051;-76
2024/03/19 05:23:39;;;;;;;27.13;16.08;;;12.80;96.70;;;;;;4945755;29;20047;-75
2024/03/19 05:26:07;;;;;;;22.20;15.57;;;12.80;96.70;;;;;;4931694;29;20416;-76
2024/03/19 05:28:37;;;;;;;23.27;15.27;;;12.80;96.70;;;;;;4913364;29;20063;-77
2024/03/19 05:31:22;;;;;;;23.00;15.82;;;12.80;96.70;;;;;;4915024;29;20161;-76
2024/03/19 05:33:52;;;;;;;21.80;15.15;;;12.80;96.70;;;;;;4913042;29;20051;-76
2024/03/19 05:36:20;;;;;;;27.33;16.25;;;12.80;96.70;;;;;;4930735;29;20136;-76
2024/03/19 05:38:47;;;;;;;22.92;15.93;;;12.80;96.70;;;;;;4912225;29;20142;-76
2024/03/19 05:41:16;;;;;;;23.98;15.63;;;12.90;96.70;;;;;;4931186;29;20463;-77
2024/03/19 05:43:44;;;;;;;21.52;15.85;;;12.90;96.70;;;;;;4942990;28;20102;-75
2024/03/19 05:46:12;;;;;;;24.05;15.90;;;12.90;96.70;;;;;;4914536;29;20051;-76
2024/03/19 05:48:44;;;;;;;21.92;16.25;;;12.90;96.70;;;;;;4916516;29;20055;-76
2024/03/19 05:51:12;;;;;;;22.80;14.82;;;12.90;96.70;;;;;;4946187;29;20078;-76
2024/03/19 05:53:41;;;;;;;28.70;16.17;;;12.90;96.70;;;;;;4915185;29;20071;-76
2024/03/19 05:56:11;;;;;;;20.58;14.95;;;13.00;96.70;;;;;;4930829;29;20078;-76
2024/03/19 05:58:38;;;;;;;22.13;14.10;;;13.00;96.70;;;;;;4930283;29;20039;-76
2024/03/19 06:01:05;;;;;;;19.30;14.30;;;13.00;96.70;;;;;;4944506;29;20105;-76
2024/03/19 06:03:33;;;;;;;20.23;13.40;;;13.00;96.70;;;;;;4930112;29;20055;-76
2024/03/19 06:06:08;;;;;;;19.65;14.60;;;13.00;96.70;;;;;;4926640;29;20055;-76
2024/03/19 06:08:37;;;;;;;18.05;13.82;;;13.00;96.70;;;;;;4926383;29;20048;-76
2024/03/19 06:11:05;;;;;;;17.80;13.27;;;13.00;96.70;;;;;;4913750;29;20130;-76
2024/03/19 06:13:33;;;;;;;19.63;14.57;;;13.10;96.70;;;;;;4932298;29;20078;-76
2024/03/19 06:16:05;;;;;;;18.45;14.52;;;13.10;96.70;;;;;;4929570;29;20047;-76
2024/03/19 06:18:33;;;;;;;20.55;14.25;;;13.10;96.70;;;;;;4917918;29;20059;-76
2024/03/19 06:21:06;;;;;;;18.98;13.90;;;13.10;96.70;;;;;;4939733;29;20059;-76
2024/03/19 06:23:36;;;;;;;19.85;14.27;;;13.10;96.70;;;;;;4932217;29;20142;-76
2024/03/19 06:26:04;;;;;;;18.67;14.13;;;13.20;96.70;;;;;;4949656;29;20043;-76
2024/03/19 06:28:34;;;;;;;18.27;14.02;;;13.10;96.70;;;;;;4917363;29;20059;-76
2024/03/19 06:31:01;;;;;;;21.17;14.65;;;13.20;96.70;;;;;;4931035;29;20083;-76
2024/03/19 06:33:29;;;;;;;19.42;13.82;;;13.20;96.70;;;;;;4921905;29;20063;-76
2024/03/19 06:35:56;;;;;;;20.77;15.30;;;13.20;96.70;;;;;;4915408;29;20066;-76
2024/03/19 06:38:25;;;;;;;22.95;15.15;;;13.30;96.70;;;;;;4930717;29;20135;-76
2024/03/19 06:40:53;;;;;;;19.95;15.00;;;13.30;96.70;;;;;;4913466;29;20051;-74
2024/03/19 06:43:19;;;;;;;22.65;14.43;;;13.30;96.70;;;;;;4947992;29;20055;-74
2024/03/19 06:45:47;;;;;;;21.08;15.00;;;13.30;96.70;;;;;;4944887;29;20203;-74
2024/03/19 06:48:15;;;;;;;19.42;14.63;;;13.40;96.70;;;;;;4937493;29;20051;-74
2024/03/19 06:50:45;;;;;;;22.08;15.07;;;13.40;96.70;;;;;;4927636;29;20099;-73
2024/03/19 06:53:13;;;;;;;18.75;14.55;;;13.40;96.70;;;;;;4900323;29;20054;-74
2024/03/19 06:55:42;;;;;;;20.20;13.90;;;13.50;96.70;;;;;;4931253;29;20102;-74
2024/03/19 06:58:12;;;;;;;22.38;14.57;;;13.50;96.70;;;;;;4933954;29;20465;-74
2024/03/19 07:00:40;;;;;;;20.73;13.85;;;13.50;96.70;;;;;;4931495;29;20158;-75
2024/03/19 07:03:09;;;;;;;19.65;14.27;;;13.50;96.70;;;;;;4932240;29;20157;-74
2024/03/19 07:05:38;;;;;;;17.42;13.15;;;13.50;96.70;;;;;;4915270;29;20059;-74
2024/03/19 07:08:06;;;;;;;20.33;12.95;;;13.50;96.70;;;;;;4928000;29;20102;-74
2024/03/19 07:10:34;;;;;;;16.73;12.95;;;13.50;96.70;;;;;;4924767;29;20527;-74
2024/03/19 07:13:07;;;;;;;15.32;12.13;;;13.50;96.70;;;;;;4937988;29;20265;-74
2024/03/19 07:15:34;;;;;;;17.88;13.07;;;13.60;96.70;;;;;;4926293;29;20050;-73
2024/03/19 07:18:04;;;;;;;16.65;13.18;;;13.60;96.70;;;;;;4931811;29;20050;-75
2024/03/19 07:20:33;;;;;;;18.30;13.00;;;13.70;96.70;;;;;;4909369;29;20679;-74
2024/03/19 07:23:05;;;;;;;21.70;13.90;;;13.70;96.70;;;;;;4898026;29;20465;-74
2024/03/19 07:25:34;;;;;;;24.23;15.02;;;13.70;96.70;;;;;;4896088;29;20047;-74
2024/03/19 07:28:03;;;;;;;17.45;13.45;;;13.70;96.70;;;;;;4917623;29;20078;-74
2024/03/19 07:30:31;;;;;;;21.17;14.20;;;13.70;96.70;;;;;;4918117;29;20075;-73
2024/03/19 07:33:02;;;;;;;24.45;15.35;;;13.80;96.70;;;;;;4923376;29;20055;-75
2024/03/19 07:35:30;;;;;;;22.20;15.25;;;13.80;96.70;;;;;;4945424;29;20704;-73
2024/03/19 07:38:00;;;;;;;23.42;17.23;;;13.90;96.70;;;;;;4913337;29;20048;-74
2024/03/19 07:40:33;;;;;;;22.33;16.85;;;13.90;96.70;;;;;;4915919;29;20054;-74
2024/03/19 07:43:03;;;;;;;21.17;17.13;;;13.90;96.70;;;;;;4915362;29;20055;-74
2024/03/19 07:45:32;;;;;;;22.30;16.95;;;13.90;96.70;;;;;;4934545;29;20054;-74
2024/03/19 07:48:04;;;;;;;23.40;16.13;;;14.00;96.70;;;;;;4911563;29;20414;-74
2024/03/19 07:50:34;;;;;;;23.80;17.25;;;14.10;96.70;;;;;;4946278;28;20904;-74
2024/03/19 07:53:02;;;;;;;21.23;16.08;;;14.10;96.70;;;;;;4901646;29;20047;-74
2024/03/19 07:55:30;;;;;;;23.08;15.57;;;14.10;96.70;;;;;;4932372;29;20047;-74
2024/03/19 07:58:00;;;;;;;20.67;15.43;;;14.10;96.70;;;;;;4922847;29;20067;-74
2024/03/19 08:00:33;;;;;;;22.77;15.35;;;14.10;96.70;;;;;;4934734;29;20074;-74
2024/03/19 08:03:04;;;;;;;19.83;14.77;;;14.10;96.70;;;;;;4942551;29;20627;-74
2024/03/19 08:05:32;;;;;;;22.02;15.05;;;14.00;96.70;;;;;;4909587;29;20043;-74
2024/03/19 08:08:01;;;;;;;24.67;15.57;;;14.00;96.70;;;;;;4918402;29;20090;-74
2024/03/19 08:10:31;;;;;;;22.63;15.65;;;14.10;96.70;;;;;;4937573;29;20052;-74
2024/03/19 08:13:00;;;;;;;20.70;15.68;;;14.20;96.70;;;;;;4935910;29;20584;-74
2024/03/19 08:15:29;;;;;;;22.42;15.75;;;14.30;96.70;;;;;;4931853;29;20043;-74
2024/03/19 08:17:57;;;;;;;22.10;16.23;;;14.40;96.70;;;;;;4921995;29;20493;-74
2024/03/19 08:20:25;;;;;;;25.33;17.52;;;14.40;96.70;;;;;;4916824;29;20059;-73
2024/03/19 08:22:53;;;;;;;23.20;16.02;;;14.30;96.70;;;;;;4947376;28;20522;-75
2024/03/19 08:25:20;;;;;;;21.40;16.58;;;14.40;96.70;;;;;;4915933;29;20050;-74
2024/03/19 08:27:48;;;;;;;20.40;16.38;;;14.40;96.70;;;;;;4915372;29;20063;-74
2024/03/19 08:30:16;;;;;;;21.52;17.23;;;14.50;96.70;;;;;;4915829;29;20154;-74
2024/03/19 08:32:44;;;;;;;20.38;16.60;;;14.60;96.70;;;;;;4915836;29;20062;-75
2024/03/19 08:35:14;;;;;;;21.90;16.83;;;14.70;96.70;;;;;;4922754;29;20155;-74
2024/03/19 08:37:46;;;;;;;21.50;16.02;;;14.90;96.70;;;;;;4942968;29;20119;-74
2024/03/19 08:40:15;;;;;;;24.98;16.10;;;15.00;96.70;;;;;;4915740;29;20731;-74
2024/03/19 08:42:43;;;;;;;23.00;16.30;;;15.10;96.70;;;;;;4918207;29;20397;-74
2024/03/19 08:45:11;;;;;;;20.58;15.93;;;15.10;96.70;;;;;;4934438;29;20047;-75
2024/03/19 08:47:39;;;;;;;22.77;16.88;;;15.10;96.70;;;;;;4946686;29;20051;-74
2024/03/19 08:50:08;;;;;;;21.95;17.15;;;15.00;96.70;;;;;;4948223;29;20051;-75
2024/03/19 08:52:38;;;;;;;20.48;15.80;;;15.10;96.70;;;;;;4945947;29;20051;-74
2024/03/19 08:55:07;;;;;;;23.42;16.88;;;15.20;96.70;;;;;;4946371;29;20413;-75
2024/03/19 08:57:34;;;;;;;21.00;16.48;;;15.20;96.70;;;;;;4917935;29;20416;-75
2024/03/19 09:00:10;;;;;;;24.95;17.33;;;15.20;96.70;;;;;;4918508;29;20085;-75
2024/03/19 09:02:39;;;;;;;19.05;16.05;;;15.20;96.70;;;;;;4949002;28;20532;-75
2024/03/19 09:05:07;;;;;;;21.60;17.40;;;15.20;96.70;;;;;;4930909;29;20067;-75
2024/03/19 09:07:38;;;;;;;22.75;16.63;;;15.20;96.70;;;;;;4941778;29;20059;-74
2024/03/19 09:10:07;;;;;;;21.25;17.10;;;15.20;96.70;;;;;;4907797;29;20047;-74
2024/03/19 09:12:34;;;;;;;22.25;17.50;;;15.20;96.70;;;;;;4943320;29;20074;-75
2024/03/19 09:15:04;;;;;;;20.33;16.92;;;15.20;96.70;;;;;;4934234;29;20054;-74
2024/03/19 09:17:31;;;;;;;20.52;16.60;;;15.30;96.70;;;;;;4918604;29;20082;-75
2024/03/19 09:19:58;;;;;;;20.25;17.20;;;15.30;96.70;;;;;;4920980;29;20391;-74
2024/03/19 09:22:25;;;;;;;21.95;17.00;;;15.40;96.70;;;;;;4943017;28;20066;-74
2024/03/19 09:24:55;;;;;;;23.08;18.23;;;15.40;96.70;;;;;;4929117;29;20107;-75
2024/03/19 09:27:25;;;;;;;23.13;18.40;;;15.40;96.70;;;;;;4915418;29;20067;-75
2024/03/19 09:29:53;;;;;;;22.48;17.88;;;15.40;96.70;;;;;;4901331;29;20054;-75
2024/03/19 09:32:22;;;;;;;25.08;19.52;;;15.50;96.70;;;;;;4914041;29;20054;-75
2024/03/19 09:34:50;;;;;;;26.35;19.02;;;15.50;96.70;;;;;;4940905;29;20107;-75
2024/03/19 09:37:17;;;;;;;25.08;19.75;;;15.50;96.70;;;;;;4913281;29;20054;-74
2024/03/19 09:39:44;;;;;;;21.58;18.23;;;15.60;96.70;;;;;;4897993;29;20445;-74
2024/03/19 09:42:19;;;;;;;25.35;20.27;;;15.70;96.70;;;;;;4922691;29;20137;-75
2024/03/19 09:44:48;;;;;;;26.40;18.63;;;15.70;96.70;;;;;;4916848;29;20078;-75
2024/03/19 09:47:20;;;;;;;25.20;18.65;;;15.90;96.70;;;;;;4917069;29;20146;-75
2024/03/19 09:49:49;;;;;;;24.55;19.02;;;15.90;96.70;;;;;;4927990;29;20497;-75
2024/03/19 09:52:16;;;;;;;24.10;19.17;;;16.00;96.70;;;;;;4895968;29;20047;-74
2024/03/19 09:54:47;;;;;;;23.02;19.15;;;16.00;96.70;;;;;;4917928;29;20083;-74
2024/03/19 09:57:18;;;;;;;23.55;19.95;;;16.10;96.70;;;;;;4916966;29;20047;-75
2024/03/19 09:59:47;;;;;;;24.00;18.95;;;16.10;96.70;;;;;;4916455;29;20123;-74
2024/03/19 10:02:17;;;;;;;23.40;18.85;;;16.20;96.70;;;;;;4916104;29;20529;-74
2024/03/19 10:04:48;;;;;;;24.75;19.52;;;16.40;96.70;;;;;;4909753;29;20524;-75
2024/03/19 10:07:17;;;;;;;21.98;17.92;;;16.50;96.70;;;;;;4928790;29;20094;-75
2024/03/19 10:09:45;;;;;;;23.88;19.42;;;16.50;96.70;;;;;;4925338;29;20055;-74
2024/03/19 10:12:17;;;;;;;26.33;18.40;;;16.50;96.70;;;;;;4942666;28;20526;-75
2024/03/19 10:14:47;;;;;;;24.88;19.60;;;16.60;96.70;;;;;;4916816;29;20079;-75
2024/03/19 10:17:14;;;;;;;23.58;18.73;;;16.70;96.70;;;;;;4933319;29;20070;-75
2024/03/19 10:19:44;;;;;;;22.63;18.13;;;16.70;96.70;;;;;;4916803;29;20059;-75
2024/03/19 10:22:15;;;;;;;22.90;17.95;;;16.80;96.70;;;;;;4915272;29;20138;-75
2024/03/19 10:24:47;;;;;;;22.20;18.05;;;16.80;96.70;;;;;;4899795;29;20061;-76
2024/03/19 10:27:17;;;;;;;22.08;17.52;;;17.00;96.70;;;;;;4946902;29;20110;-75
2024/03/19 10:29:44;;;;;;;21.83;18.45;;;17.10;96.70;;;;;;4933187;29;20476;-76
2024/03/19 10:32:12;;;;;;;23.52;17.85;;;17.10;96.70;;;;;;4932536;29;20114;-75
2024/03/19 10:34:43;;;;;;;24.20;17.42;;;17.20;96.70;;;;;;4932187;29;20070;-75
2024/03/19 10:37:12;;;;;;;22.75;18.42;;;17.10;96.70;;;;;;4937991;29;20044;-75
2024/03/19 10:39:43;;;;;;;22.77;19.25;;;17.10;96.70;;;;;;4913913;29;20047;-75
2024/03/19 10:42:14;;;;;;;20.27;16.92;;;17.20;96.70;;;;;;4930861;29;20047;-76
2024/03/19 10:44:47;;;;;;;18.83;15.13;;;17.40;96.70;;;;;;4917374;29;20047;-75
2024/03/19 10:47:16;;;;;;;19.25;16.13;;;17.50;96.70;;;;;;4916187;29;20142;-75
2024/03/19 10:49:43;;;;;;;19.17;15.60;;;17.60;96.70;;;;;;4946693;29;20059;-75
2024/03/19 10:52:18;;;;;;;16.60;13.55;;;17.80;96.70;;;;;;4946888;29;20110;-75
2024/03/19 10:54:49;;;;;;;17.65;13.82;;;17.90;96.70;;;;;;4932914;29;20166;-75
2024/03/19 10:57:18;;;;;;;19.35;14.57;;;18.10;96.70;;;;;;4913112;29;20699;-76
2024/03/19 10:59:47;;;;;;;16.83;14.32;;;18.30;96.70;;;;;;4901389;29;20047;-75
2024/03/19 11:02:18;;;;;;;19.25;15.00;;;18.30;96.70;;;;;;4916856;29;20055;-75
2024/03/19 11:04:56;;;;;;;17.27;14.82;;;18.20;96.70;;;;;;4918425;29;20106;-75
2024/03/19 11:07:26;;;;;;;18.42;15.13;;;18.10;96.70;;;;;;4916603;29;20059;-75
2024/03/19 11:09:56;;;;;;;15.05;12.85;;;18.20;96.70;;;;;;4932150;29;20051;-74
2024/03/19 11:12:25;;;;;;;15.98;13.35;;;18.30;96.70;;;;;;4929635;29;20051;-75
2024/03/19 11:14:59;;;;;;;15.55;12.82;;;18.50;96.70;;;;;;4915464;29;20051;-75
2024/03/19 11:17:28;;;;;;;;;;;18.60;96.70;;;;;;4932788;29;20051;-76
2024/03/19 11:19:57;;;;;;;14.23;11.35;;;18.70;96.70;;;;;;4941432;29;20078;-76
2024/03/19 11:22:29;;;;;;;12.93;10.98;;;18.80;96.70;;;;;;4931880;29;20047;-76
2024/03/19 11:25:01;;;;;;;13.43;10.52;;;18.90;96.70;;;;;;4933858;29;20773;-76
2024/03/19 11:27:33;;;;;;;12.68;10.90;;;19.00;96.70;;;;;;4933293;29;20056;-75
2024/03/19 11:30:08;;;;;;;14.07;10.73;;;19.00;96.70;;;;;;4923028;29;20059;-75
2024/03/19 11:32:37;;;;;;;;;;;19.00;96.70;;;;;;4913430;29;20130;-75
2024/03/19 11:35:17;;;;;;;11.75;10.30;;;19.10;96.70;;;;;;4927667;29;19934;-75
2024/03/19 11:37:47;;;;;;;14.07;10.43;;;19.30;96.70;;;;;;4953342;29;20039;-75
2024/03/19 11:40:16;;;;;;;10.73;8.63;;;19.50;96.70;;;;;;4954143;29;20055;-75
2024/03/19 11:42:46;;;;;;;12.45;8.80;;;19.70;96.70;;;;;;4937911;29;20079;-74
2024/03/19 11:45:16;;;;;;;9.38;7.95;;;19.90;96.70;;;;;;4921247;29;20514;-76
2024/03/19 11:47:45;;;;;;;8.00;6.65;;;20.00;96.70;;;;;;4929743;29;20052;-76
2024/03/19 11:50:18;;;;;;;6.22;5.63;;;20.20;96.70;;;;;;4922315;29;20460;-76
2024/03/19 11:52:49;;;;;;;6.10;5.50;;;20.10;96.70;;;;;;4891633;29;20055;-76
2024/03/19 11:55:16;;;;;;;6.78;5.95;;;20.00;96.70;;;;;;4919707;29;20043;-76
2024/03/19 11:57:43;;;;;;;6.70;6.00;;;20.10;96.70;;;;;;4904422;29;20070;-76
2024/03/19 12:00:16;;;;;;;7.15;5.30;;;20.20;96.70;;;;;;4904045;29;20055;-76
2024/03/19 12:02:47;;;;;;;6.40;5.22;;;20.50;96.70;;;;;;4934579;29;20057;-77
2024/03/19 12:05:15;;;;;;;4.90;4.40;;;20.70;96.70;;;;;;4930923;29;20054;-78
2024/03/19 12:07:47;;;;;;;4.40;3.78;;;20.80;96.70;;;;;;4930966;29;20062;-78
2024/03/19 12:10:23;;;;;;;4.15;3.45;;;20.90;96.70;;;;;;4906655;29;20536;-78
2024/03/19 12:12:51;;;;;;;4.53;3.60;;;21.10;96.70;;;;;;4937619;29;20046;-78
2024/03/19 12:15:24;;;;;;;4.35;3.40;;;21.30;96.70;;;;;;4938128;29;20078;-78
2024/03/19 12:17:54;;;;;;;3.88;3.20;;;21.30;96.70;;;;;;4922499;29;20055;-77
2024/03/19 12:20:22;;;;;;;4.05;3.60;;;21.30;96.70;;;;;;4921557;29;20054;-78
2024/03/19 12:22:53;;;;;;;4.63;3.58;;;21.50;96.70;;;;;;4937455;29;20043;-78
2024/03/19 12:25:25;;;;;;;3.95;3.50;;;21.50;96.70;;;;;;4937753;29;20071;-78
2024/03/19 12:27:53;;;;;;;5.20;3.95;;;21.70;96.70;;;;;;4937382;29;20153;-78
2024/03/19 12:30:22;;;;;;;4.45;3.10;;;21.70;96.70;;;;;;4906021;29;20536;-77
2024/03/19 12:35:33;;;;;;;4.15;3.55;;;21.90;96.70;;;;;;4947635;29;20051;-76
2024/03/19 12:38:03;;;;;;;3.45;3.15;;;22.10;96.70;;;;;;4929477;29;20047;-76
2024/03/19 12:40:31;;;;;;;4.88;3.10;;;22.10;96.70;;;;;;4918686;29;20382;-76